Time;durP1;ratioP1;P1;durP2;ratioP2;P2;SDS_P1;SDS_P2;PMS_P1;PMS_P2;Temp;Humidity;BMP_temperature;BMP_pressure;BME280_temperature;BME280_humidity;BME280_pressure;Samples;Min_cycle;Max_cycle;Signal;HPM_P1;HPM_P2
2023/04/21 00:02:26;;;;;;;6.20;3.88;;;14.80;64.20;;;;;;6263138;28;20025;-70
2023/04/21 00:05:27;;;;;;;8.48;4.43;;;15.00;64.40;;;;;;6267557;28;20021;-70
2023/04/21 00:08:28;;;;;;;8.27;3.65;;;15.00;64.40;;;;;;6268040;28;21255;-70
2023/04/21 00:11:29;;;;;;;5.88;3.42;;;15.10;64.40;;;;;;6268555;28;20048;-69
2023/04/21 00:14:29;;;;;;;8.52;3.10;;;15.10;64.20;;;;;;6267617;28;20025;-70
2023/04/21 00:17:30;;;;;;;5.40;3.38;;;15.10;64.10;;;;;;6267363;28;20357;-70
2023/04/21 00:20:31;;;;;;;6.78;3.20;;;15.10;64.00;;;;;;6250305;28;20032;-70
2023/04/21 00:23:32;;;;;;;6.78;3.33;;;15.10;64.00;;;;;;6268066;28;20040;-71
2023/04/21 00:26:33;;;;;;;7.30;3.47;;;15.20;63.90;;;;;;6249815;28;20430;-70
2023/04/21 00:29:34;;;;;;;5.65;2.90;;;15.20;63.70;;;;;;6267165;28;20041;-70
2023/04/21 00:32:35;;;;;;;5.10;3.28;;;15.20;63.60;;;;;;6249287;28;20077;-69
2023/04/21 00:35:36;;;;;;;5.65;3.58;;;15.30;63.50;;;;;;6249378;28;20107;-70
2023/04/21 00:38:37;;;;;;;6.82;3.38;;;15.20;63.30;;;;;;6267105;28;20079;-70
2023/04/21 00:41:38;;;;;;;7.25;3.38;;;15.20;63.30;;;;;;6248638;28;20033;-70
2023/04/21 00:44:40;;;;;;;9.95;4.07;;;15.20;63.30;;;;;;6248838;28;20158;-69
2023/04/21 00:47:41;;;;;;;5.57;3.38;;;15.10;63.50;;;;;;6248695;28;20029;-71
2023/04/21 00:50:44;;;;;;;5.78;3.38;;;15.00;63.90;;;;;;6267051;28;20126;-69
2023/04/21 00:53:45;;;;;;;7.20;4.00;;;14.90;64.10;;;;;;6266836;28;20025;-69
2023/04/21 00:56:46;;;;;;;5.68;3.42;;;14.90;64.50;;;;;;6248406;28;20025;-70
2023/04/21 00:59:48;;;;;;;7.60;3.65;;;14.80;64.60;;;;;;6266589;28;20079;-69
2023/04/21 01:02:49;;;;;;;6.90;3.50;;;14.80;64.80;;;;;;6266273;28;20491;-69
2023/04/21 01:05:51;;;;;;;11.13;3.78;;;14.80;64.80;;;;;;6248526;28;20047;-69
2023/04/21 01:08:52;;;;;;;8.10;3.55;;;14.90;64.80;;;;;;6248458;28;20120;-69
2023/04/21 01:12:05;;;;;;;8.98;3.72;;;14.90;64.90;;;;;;6247986;28;20029;-70
2023/04/21 01:15:08;;;;;;;7.00;3.40;;;14.80;65.00;;;;;;6265793;28;20446;-70
2023/04/21 01:18:11;;;;;;;11.57;3.22;;;14.80;65.10;;;;;;6231480;28;20039;-70
2023/04/21 01:21:15;;;;;;;6.68;3.33;;;14.90;65.10;;;;;;6248401;28;20355;-70
2023/04/21 01:24:16;;;;;;;6.57;3.20;;;14.90;65.00;;;;;;6248362;28;20025;-70
2023/04/21 01:27:20;;;;;;;5.97;2.97;;;14.90;65.00;;;;;;6248313;28;20610;-71
2023/04/21 01:30:21;;;;;;;10.50;3.15;;;14.90;65.00;;;;;;6266257;28;20116;-68
2023/04/21 01:33:23;;;;;;;6.90;3.28;;;14.90;64.90;;;;;;6247397;28;20040;-69
2023/04/21 01:36:24;;;;;;;5.15;3.05;;;14.90;65.00;;;;;;6266287;28;20032;-69
2023/04/21 01:39:26;;;;;;;4.30;2.90;;;14.80;65.10;;;;;;6265940;28;20029;-69
2023/04/21 01:42:28;;;;;;;7.28;2.78;;;14.80;65.20;;;;;;6266356;28;20098;-70
2023/04/21 01:45:30;;;;;;;5.18;2.65;;;14.80;65.30;;;;;;6247808;28;20021;-70
2023/04/21 01:48:31;;;;;;;4.80;2.42;;;14.70;65.30;;;;;;6247880;28;20025;-70
2023/04/21 01:51:33;;;;;;;3.53;2.25;;;14.70;65.50;;;;;;6247626;28;20098;-70
2023/04/21 01:54:34;;;;;;;4.35;2.28;;;14.80;65.60;;;;;;6247755;28;20029;-70
2023/04/21 01:57:35;;;;;;;6.68;2.83;;;14.70;65.50;;;;;;6246794;28;20033;-70
2023/04/21 02:00:36;;;;;;;4.90;2.63;;;14.80;65.70;;;;;;6246979;28;20508;-71
2023/04/21 02:03:39;;;;;;;7.45;3.50;;;14.80;65.60;;;;;;6246484;28;20374;-70
2023/04/21 02:06:42;;;;;;;5.65;3.30;;;14.90;65.60;;;;;;6247309;28;20398;-70
2023/04/21 02:09:46;;;;;;;5.65;3.35;;;14.90;65.60;;;;;;6256722;22;20056;-71
2023/04/21 02:12:57;;;;;;;5.95;3.05;;;14.90;65.50;;;;;;6258600;28;20871;-72
2023/04/21 02:15:58;;;;;;;7.30;3.83;;;14.90;65.40;;;;;;6258812;28;20113;-70
2023/04/21 02:18:59;;;;;;;12.15;3.83;;;14.90;65.40;;;;;;6276828;28;20021;-70
2023/04/21 02:22:01;;;;;;;7.15;4.10;;;14.80;65.50;;;;;;6254927;23;20134;-70
2023/04/21 02:25:01;;;;;;;5.43;3.30;;;14.70;65.60;;;;;;6238232;28;20025;-68
2023/04/21 02:28:02;;;;;;;6.38;3.90;;;14.60;65.90;;;;;;6246725;28;20029;-69
2023/04/21 02:31:03;;;;;;;8.70;3.97;;;14.50;66.20;;;;;;6265349;28;20124;-69
2023/04/21 02:34:07;;;;;;;10.02;4.13;;;14.40;66.40;;;;;;6247138;28;20039;-69
2023/04/21 02:37:08;;;;;;;6.97;3.92;;;14.40;66.60;;;;;;6246998;28;20386;-70
2023/04/21 02:40:10;;;;;;;6.97;3.85;;;14.40;66.50;;;;;;6247190;28;20039;-69
2023/04/21 02:43:13;;;;;;;8.15;4.47;;;14.40;66.50;;;;;;6264696;28;20071;-69
2023/04/21 02:46:14;;;;;;;7.75;4.32;;;14.40;66.50;;;;;;6265377;28;20040;-69
2023/04/21 02:49:15;;;;;;;11.38;4.68;;;14.40;66.50;;;;;;6246223;28;20036;-71
2023/04/21 02:52:15;;;;;;;8.30;4.45;;;14.40;66.50;;;;;;6246062;28;20033;-70
2023/04/21 02:55:16;;;;;;;8.55;5.07;;;14.30;66.50;;;;;;6246691;28;20033;-69
2023/04/21 02:58:17;;;;;;;13.77;4.60;;;14.30;66.50;;;;;;6264600;28;20016;-69
2023/04/21 03:01:18;;;;;;;7.85;4.65;;;14.30;66.50;;;;;;6264383;28;20028;-69
2023/04/21 03:04:19;;;;;;;9.43;4.93;;;14.30;66.60;;;;;;6246591;28;20020;-70
2023/04/21 03:07:20;;;;;;;10.25;4.97;;;14.20;66.60;;;;;;6245797;28;20025;-69
2023/04/21 03:10:21;;;;;;;11.95;5.45;;;14.20;66.60;;;;;;6246359;28;20094;-70
2023/04/21 03:13:23;;;;;;;14.30;5.25;;;14.10;66.70;;;;;;6246541;28;20032;-71
2023/04/21 03:16:25;;;;;;;11.95;5.28;;;14.10;67.00;;;;;;6264203;28;20041;-69
2023/04/21 03:19:26;;;;;;;12.13;6.22;;;14.00;67.00;;;;;;6245930;28;20040;-70
2023/04/21 03:22:27;;;;;;;15.25;6.68;;;13.90;67.10;;;;;;6245864;28;20029;-70
2023/04/21 03:25:28;;;;;;;14.20;6.22;;;13.90;67.20;;;;;;6264344;28;20013;-68
2023/04/21 03:28:29;;;;;;;13.10;6.75;;;13.90;67.20;;;;;;6245795;28;20395;-69
2023/04/21 03:31:30;;;;;;;13.13;6.95;;;13.90;67.20;;;;;;6263597;28;20122;-70
2023/04/21 03:34:31;;;;;;;12.98;6.63;;;13.90;67.10;;;;;;6229199;28;20108;-70
2023/04/21 03:37:34;;;;;;;20.25;8.48;;;13.90;67.70;;;;;;6245181;28;20116;-69
2023/04/21 03:40:35;;;;;;;17.92;7.10;;;13.90;66.80;;;;;;6245623;28;20408;-70
2023/04/21 03:43:37;;;;;;;16.00;6.88;;;13.90;66.80;;;;;;6262651;28;20149;-69
2023/04/21 03:46:38;;;;;;;12.98;6.32;;;13.90;67.10;;;;;;6245843;28;20021;-70
2023/04/21 03:49:40;;;;;;;15.55;7.38;;;13.90;67.10;;;;;;6245380;28;20434;-71
2023/04/21 03:52:41;;;;;;;17.90;7.70;;;13.90;66.90;;;;;;6263633;28;20040;-70
2023/04/21 03:55:42;;;;;;;14.15;6.45;;;13.90;66.90;;;;;;6245435;28;20053;-69
2023/04/21 03:58:43;;;;;;;12.18;6.97;;;13.90;66.80;;;;;;6263390;28;20075;-69
2023/04/21 04:01:43;;;;;;;16.27;7.10;;;13.90;66.90;;;;;;6245635;28;20596;-69
2023/04/21 04:04:44;;;;;;;12.57;7.00;;;13.90;66.80;;;;;;6263449;28;20111;-68
2023/04/21 04:07:45;;;;;;;18.45;6.65;;;13.90;66.80;;;;;;6263123;28;20060;-69
2023/04/21 04:10:46;;;;;;;12.90;7.13;;;13.90;66.60;;;;;;6245267;28;20024;-69
2023/04/21 04:13:47;;;;;;;14.90;7.13;;;13.90;66.70;;;;;;6263420;28;20037;-69
2023/04/21 04:16:48;;;;;;;16.83;7.38;;;13.90;66.60;;;;;;6263258;28;20441;-70
2023/04/21 04:19:49;;;;;;;15.80;8.30;;;13.80;66.50;;;;;;6262746;28;20033;-70
2023/04/21 04:22:50;;;;;;;17.98;7.55;;;13.90;66.60;;;;;;6262862;28;20068;-70
2023/04/21 04:25:51;;;;;;;22.00;8.43;;;13.80;66.40;;;;;;6262273;28;20044;-71
2023/04/21 04:28:52;;;;;;;18.00;8.13;;;13.80;66.40;;;;;;6262642;28;20071;-70
2023/04/21 04:31:53;;;;;;;19.02;8.45;;;13.80;66.40;;;;;;6262329;28;20061;-69
2023/04/21 04:34:55;;;;;;;19.90;8.27;;;13.80;66.40;;;;;;6262102;28;20726;-70
2023/04/21 04:37:56;;;;;;;16.35;7.88;;;13.70;66.40;;;;;;6261981;28;20028;-69
2023/04/21 04:40:57;;;;;;;20.92;8.73;;;13.70;66.60;;;;;;6244589;28;20063;-69
2023/04/21 04:43:59;;;;;;;14.45;7.85;;;13.60;66.60;;;;;;6262563;28;20539;-70
2023/04/21 04:46:59;;;;;;;17.30;8.15;;;13.60;66.60;;;;;;6244149;28;20075;-71
2023/04/21 04:50:00;;;;;;;17.77;8.73;;;13.60;66.80;;;;;;6265017;28;20100;-69
2023/04/21 04:53:01;;;;;;;16.80;7.75;;;13.60;66.90;;;;;;6267226;28;20033;-70
2023/04/21 04:56:02;;;;;;;15.55;7.63;;;13.70;66.90;;;;;;6266337;28;20116;-69
2023/04/21 04:59:03;;;;;;;18.10;8.77;;;13.70;66.70;;;;;;6266870;28;20098;-70
2023/04/21 05:02:04;;;;;;;18.05;8.50;;;13.70;66.70;;;;;;6248708;28;20090;-69
2023/04/21 05:05:06;;;;;;;16.08;7.57;;;13.70;66.50;;;;;;6266712;28;20144;-70
2023/04/21 05:08:07;;;;;;;16.48;8.02;;;13.80;66.50;;;;;;6266014;28;20354;-69
2023/04/21 05:11:08;;;;;;;19.00;8.43;;;13.90;66.30;;;;;;6248426;28;20057;-70
2023/04/21 05:14:09;;;;;;;23.42;9.32;;;13.90;66.20;;;;;;6248104;28;20037;-70
2023/04/21 05:17:10;;;;;;;19.00;8.38;;;13.90;65.90;;;;;;6266226;28;20365;-68
2023/04/21 05:20:11;;;;;;;14.60;7.72;;;13.90;65.80;;;;;;6248556;28;20041;-70
2023/04/21 05:23:12;;;;;;;17.88;8.25;;;14.00;65.90;;;;;;6247355;28;20127;-70
2023/04/21 05:26:13;;;;;;;20.88;9.52;;;14.00;65.80;;;;;;6248595;28;20017;-71
2023/04/21 05:29:13;;;;;;;15.20;8.05;;;14.00;65.70;;;;;;6265825;28;20037;-69
2023/04/21 05:32:14;;;;;;;20.88;9.20;;;14.00;65.50;;;;;;6248179;28;20057;-70
2023/04/21 05:35:15;;;;;;;21.13;8.57;;;14.00;65.60;;;;;;6265382;28;20021;-70
2023/04/21 05:38:16;;;;;;;19.40;9.05;;;14.00;65.70;;;;;;6265174;28;20499;-71
2023/04/21 05:41:17;;;;;;;22.30;9.70;;;14.00;65.50;;;;;;6247118;28;20049;-70
2023/04/21 05:44:18;;;;;;;18.98;9.30;;;14.00;65.50;;;;;;6246830;28;20029;-71
2023/04/21 05:47:19;;;;;;;19.10;8.13;;;14.00;65.70;;;;;;6247525;28;20323;-71
2023/04/21 05:50:20;;;;;;;18.60;8.30;;;13.90;65.70;;;;;;6265430;28;20040;-70
2023/04/21 05:53:22;;;;;;;27.02;8.73;;;13.90;65.70;;;;;;6247532;28;20538;-70
2023/04/21 05:56:23;;;;;;;19.40;8.25;;;13.90;66.00;;;;;;6230763;28;20365;-71
2023/04/21 05:59:25;;;;;;;16.70;8.00;;;13.80;67.00;;;;;;6264879;28;20040;-70
2023/04/21 06:02:26;;;;;;;19.40;7.68;;;13.80;66.30;;;;;;6245530;28;20025;-70
2023/04/21 06:05:27;;;;;;;15.82;6.72;;;13.80;66.30;;;;;;6230918;28;20357;-69
2023/04/21 06:08:27;;;;;;;14.30;5.90;;;13.80;66.50;;;;;;6246612;28;20034;-73
2023/04/21 06:11:28;;;;;;;14.57;5.22;;;13.90;67.40;;;;;;6247061;28;20027;-70
2023/04/21 06:14:29;;;;;;;22.33;6.43;;;13.90;66.40;;;;;;6264716;28;20489;-70
2023/04/21 06:17:30;;;;;;;14.98;5.50;;;14.00;66.40;;;;;;6264992;28;20044;-71
2023/04/21 06:20:31;;;;;;;11.20;4.75;;;14.00;66.20;;;;;;6264601;28;20029;-71
2023/04/21 06:23:32;;;;;;;9.10;4.53;;;14.10;66.00;;;;;;6265048;28;20035;-70
2023/04/21 06:26:34;;;;;;;9.23;4.70;;;14.10;65.80;;;;;;6264125;28;20159;-70
2023/04/21 06:29:36;;;;;;;13.52;5.07;;;14.20;65.50;;;;;;6263420;28;20371;-69
2023/04/21 06:32:37;;;;;;;13.23;5.75;;;14.30;65.40;;;;;;6264222;28;20036;-69
2023/04/21 06:35:38;;;;;;;11.35;5.75;;;14.30;65.00;;;;;;6264249;28;20039;-69
2023/04/21 06:38:40;;;;;;;10.48;5.80;;;14.40;65.00;;;;;;6263832;28;20112;-71
2023/04/21 06:41:41;;;;;;;10.10;5.13;;;14.50;65.00;;;;;;6245314;28;20036;-69
2023/04/21 06:44:42;;;;;;;9.77;5.22;;;14.60;64.90;;;;;;6263662;28;20021;-69
2023/04/21 06:47:43;;;;;;;18.08;4.90;;;14.70;64.80;;;;;;6245825;28;20373;-68
2023/04/21 06:50:45;;;;;;;10.63;5.03;;;14.80;65.50;;;;;;6244778;28;20116;-70
2023/04/21 06:53:46;;;;;;;11.23;5.15;;;14.90;64.40;;;;;;6263544;28;20020;-70
2023/04/21 06:56:47;;;;;;;11.30;4.70;;;15.00;64.10;;;;;;6245654;28;20068;-70
2023/04/21 06:59:48;;;;;;;10.90;4.57;;;15.10;63.80;;;;;;6245103;28;20176;-70
2023/04/21 07:02:49;;;;;;;7.38;4.32;;;15.20;63.50;;;;;;6263168;28;20149;-71
2023/04/21 07:05:49;;;;;;;9.93;4.03;;;15.20;63.00;;;;;;6263165;28;20053;-69
2023/04/21 07:08:50;;;;;;;9.07;3.72;;;15.20;62.60;;;;;;6262992;28;20037;-71
2023/04/21 07:11:51;;;;;;;13.43;6.85;;;15.30;62.40;;;;;;6245300;28;20037;-71
2023/04/21 07:14:52;;;;;;;6.07;2.90;;;15.60;62.40;;;;;;6263055;28;20029;-70
2023/04/21 07:17:53;;;;;;;5.47;3.38;;;15.50;61.80;;;;;;6262560;28;20373;-70
2023/04/21 07:20:54;;;;;;;10.30;3.70;;;15.50;61.50;;;;;;6263253;28;20040;-70
2023/04/21 07:23:55;;;;;;;9.60;3.40;;;15.50;61.50;;;;;;6262415;28;20142;-69
2023/04/21 07:26:56;;;;;;;6.47;4.35;;;15.60;61.20;;;;;;6262833;28;20037;-69
2023/04/21 07:29:57;;;;;;;6.57;3.05;;;15.70;61.30;;;;;;6262520;28;20020;-69
2023/04/21 07:32:59;;;;;;;5.45;3.20;;;15.80;61.00;;;;;;6228173;28;20049;-69
2023/04/21 07:36:00;;;;;;;6.40;3.38;;;16.00;60.70;;;;;;6244463;28;20029;-69
2023/04/21 07:39:02;;;;;;;6.55;2.88;;;16.20;60.40;;;;;;6262180;28;20339;-70
2023/04/21 07:42:07;;;;;;;9.68;3.47;;;16.40;60.00;;;;;;6245047;28;20447;-70
2023/04/21 07:45:08;;;;;;;6.30;2.97;;;16.50;60.00;;;;;;6244066;28;20087;-72
2023/04/21 07:48:09;;;;;;;4.20;2.25;;;16.70;59.60;;;;;;6262486;28;20040;-70
2023/04/21 07:51:10;;;;;;;4.35;2.47;;;16.90;59.10;;;;;;6244437;28;20025;-69
2023/04/21 07:54:11;;;;;;;4.35;2.47;;;17.00;58.60;;;;;;6262401;28;20041;-70
2023/04/21 07:57:12;;;;;;;6.50;2.40;;;17.20;57.90;;;;;;6262692;28;20108;-69
2023/04/21 08:00:14;;;;;;;8.93;2.20;;;17.40;57.30;;;;;;6262606;28;20108;-69
2023/04/21 08:03:15;;;;;;;4.38;2.60;;;17.50;57.60;;;;;;6243487;28;20075;-72
2023/04/21 08:06:16;;;;;;;8.82;3.10;;;17.60;56.50;;;;;;6244111;28;20055;-68
2023/04/21 08:09:17;;;;;;;7.57;2.65;;;17.70;56.60;;;;;;6244171;28;20452;-68
2023/04/21 08:12:18;;;;;;;4.90;2.50;;;17.80;56.60;;;;;;6227730;28;20039;-70
2023/04/21 08:15:19;;;;;;;7.97;2.40;;;18.00;56.40;;;;;;6262332;28;20115;-71
2023/04/21 08:18:20;;;;;;;2.40;1.70;;;18.20;55.50;;;;;;6262016;28;20111;-73
2023/04/21 08:21:21;;;;;;;4.70;1.95;;;18.30;55.10;;;;;;6262213;28;20505;-72
2023/04/21 08:24:21;;;;;;;4.32;1.45;;;18.40;54.80;;;;;;6245724;28;20025;-72
2023/04/21 08:27:23;;;;;;;6.05;2.08;;;18.40;54.20;;;;;;6249044;28;20025;-69
2023/04/21 08:30:26;;;;;;;2.45;1.65;;;18.40;53.60;;;;;;6266990;28;20033;-70
2023/04/21 08:33:27;;;;;;;4.60;1.58;;;18.50;53.40;;;;;;6266841;28;20061;-71
2023/04/21 08:36:28;;;;;;;8.55;1.88;;;18.50;53.50;;;;;;6267153;28;20070;-70
2023/04/21 08:39:29;;;;;;;3.25;2.00;;;18.50;53.50;;;;;;6266605;28;20455;-70
2023/04/21 08:42:30;;;;;;;5.18;2.25;;;18.60;53.10;;;;;;6266381;28;20070;-69
2023/04/21 08:45:31;;;;;;;2.75;1.83;;;18.70;52.60;;;;;;6266767;28;20121;-71
2023/04/21 08:48:36;;;;;;;7.53;2.55;;;18.90;52.60;;;;;;6266302;28;20481;-69
2023/04/21 08:51:37;;;;;;;6.90;2.22;;;19.10;52.10;;;;;;6266231;28;20120;-70
2023/04/21 08:54:39;;;;;;;3.53;1.90;;;19.30;51.50;;;;;;6266269;28;20048;-72
2023/04/21 08:57:40;;;;;;;10.48;3.10;;;19.30;51.20;;;;;;6266056;28;20109;-70
2023/04/21 09:00:41;;;;;;;4.25;1.80;;;19.20;51.10;;;;;;6248161;28;20863;-70
2023/04/21 09:03:42;;;;;;;3.25;1.45;;;19.10;51.00;;;;;;6266503;28;20039;-70
2023/04/21 09:06:44;;;;;;;11.13;3.58;;;19.20;51.20;;;;;;6248066;28;20021;-69
2023/04/21 09:09:59;;;;;;;4.70;2.42;;;19.30;51.10;;;;;;6266035;28;20021;-70
2023/04/21 09:13:06;;;;;;;8.30;2.60;;;19.40;50.60;;;;;;6265739;28;20083;-70
2023/04/21 09:16:16;;;;;;;5.65;2.35;;;19.50;51.00;;;;;;6266231;28;20393;-71
2023/04/21 09:19:17;;;;;;;9.45;3.20;;;19.50;50.60;;;;;;6266102;28;20041;-70
2023/04/21 09:22:18;;;;;;;4.35;1.80;;;19.40;50.50;;;;;;6247582;28;20116;-72
2023/04/21 09:25:20;;;;;;;3.92;1.90;;;19.40;50.30;;;;;;6266465;28;20035;-71
2023/04/21 09:28:21;;;;;;;4.85;2.30;;;19.20;50.30;;;;;;6247512;28;20061;-73
2023/04/21 09:31:23;;;;;;;8.05;3.72;;;19.30;50.50;;;;;;6247586;28;20171;-71
2023/04/21 09:34:25;;;;;;;3.92;2.17;;;19.30;50.50;;;;;;6265621;28;20090;-70
2023/04/21 09:37:33;;;;;;;10.07;2.45;;;19.30;49.90;;;;;;6264889;28;20037;-70
2023/04/21 09:40:34;;;;;;;3.40;2.20;;;19.40;50.10;;;;;;6264681;28;20090;-70
2023/04/21 09:43:35;;;;;;;3.13;2.03;;;19.50;50.10;;;;;;6247057;28;20037;-70
2023/04/21 09:46:36;;;;;;;3.80;1.90;;;19.70;49.80;;;;;;6246704;28;20452;-71
2023/04/21 09:49:43;;;;;;;6.75;1.75;;;19.90;49.50;;;;;;6265010;28;20804;-71
2023/04/21 09:52:48;;;;;;;4.03;1.80;;;20.00;49.10;;;;;;6264817;28;20056;-70
2023/04/21 09:55:52;;;;;;;6.45;3.08;;;20.10;48.90;;;;;;6264320;28;20033;-69
2023/04/21 09:58:57;;;;;;;3.10;1.58;;;20.30;48.60;;;;;;6265125;28;20122;-69
2023/04/21 10:01:59;;;;;;;4.80;1.38;;;20.40;48.20;;;;;;6246176;28;20071;-69
2023/04/21 10:05:00;;;;;;;3.67;2.05;;;20.60;48.10;;;;;;6264020;28;20504;-70
2023/04/21 10:08:01;;;;;;;4.40;1.83;;;20.70;47.70;;;;;;6264516;28;20263;-70
2023/04/21 10:11:03;;;;;;;12.07;4.20;;;20.80;47.50;;;;;;6264414;28;20029;-69
2023/04/21 10:14:04;;;;;;;5.13;2.45;;;20.90;47.20;;;;;;6245770;28;21199;-69
2023/04/21 10:17:09;;;;;;;7.38;2.60;;;21.00;47.00;;;;;;6263680;28;20469;-69
2023/04/21 10:20:14;;;;;;;7.75;2.28;;;21.00;47.10;;;;;;6264035;28;20049;-70
2023/04/21 10:23:37;;;;;;;11.02;3.33;;;21.20;47.00;;;;;;6245659;28;20041;-70
2023/04/21 10:26:38;;;;;;;5.13;2.33;;;21.30;46.80;;;;;;6250663;28;20115;-70
2023/04/21 10:29:40;;;;;;;6.85;2.65;;;21.50;46.60;;;;;;6264363;28;20029;-70
2023/04/21 10:32:42;;;;;;;5.18;1.67;;;21.60;46.60;;;;;;6264433;28;20032;-70
2023/04/21 10:36:03;;;;;;;4.25;2.45;;;21.60;45.50;;;;;;6263527;28;20057;-70
2023/04/21 10:39:04;;;;;;;7.95;2.40;;;21.70;45.20;;;;;;6245665;28;20032;-70
2023/04/21 10:42:11;;;;;;;6.03;2.38;;;21.80;45.10;;;;;;6263667;28;20445;-70
2023/04/21 10:45:12;;;;;;;8.30;3.22;;;22.10;45.00;;;;;;6264574;28;20040;-70
2023/04/21 10:48:14;;;;;;;8.40;3.30;;;22.40;44.50;;;;;;6263093;28;20029;-70
2023/04/21 10:51:14;;;;;;;8.65;3.35;;;22.60;43.50;;;;;;6245230;28;20449;-71
2023/04/21 10:54:15;;;;;;;3.95;2.10;;;22.90;43.30;;;;;;6264079;28;20094;-69
2023/04/21 10:57:18;;;;;;;3.20;1.80;;;23.00;42.90;;;;;;6263774;28;20114;-71
2023/04/21 11:00:21;;;;;;;11.48;4.78;;;23.20;42.30;;;;;;6263847;28;20037;-70
2023/04/21 11:03:24;;;;;;;4.35;1.80;;;23.40;42.00;;;;;;6264194;28;20469;-71
2023/04/21 11:06:26;;;;;;;5.90;2.15;;;23.50;41.50;;;;;;6263258;28;20029;-70
2023/04/21 11:09:26;;;;;;;12.35;5.38;;;23.60;41.20;;;;;;6244919;28;20033;-70
2023/04/21 11:12:32;;;;;;;5.55;3.10;;;23.70;41.10;;;;;;6263779;28;20032;-70
2023/04/21 11:15:33;;;;;;;4.18;2.78;;;23.80;40.80;;;;;;6245457;28;20109;-71
2023/04/21 11:18:42;;;;;;;5.90;2.45;;;24.00;40.40;;;;;;6262923;28;20060;-70
2023/04/21 11:21:47;;;;;;;8.00;2.42;;;24.20;40.10;;;;;;6263597;28;20025;-70
2023/04/21 11:24:50;;;;;;;8.35;2.38;;;24.30;39.90;;;;;;6262838;28;20083;-70
2023/04/21 11:27:55;;;;;;;5.57;1.63;;;24.40;39.80;;;;;;6262385;28;20811;-70
2023/04/21 11:30:56;;;;;;;4.35;1.92;;;24.60;39.70;;;;;;6244998;28;20094;-70
2023/04/21 11:33:58;;;;;;;5.13;2.15;;;24.90;39.30;;;;;;6262871;28;20024;-70
2023/04/21 11:36:59;;;;;;;3.13;1.90;;;25.10;39.20;;;;;;6262036;28;20040;-71
2023/04/21 11:40:00;;;;;;;4.13;1.48;;;25.40;38.70;;;;;;6245032;28;20036;-71
2023/04/21 11:43:02;;;;;;;6.95;1.80;;;25.60;38.40;;;;;;6244600;28;20037;-70
2023/04/21 11:46:23;;;;;;;5.90;2.05;;;25.80;38.10;;;;;;6262461;28;20025;-71
2023/04/21 11:49:28;;;;;;;6.15;1.55;;;26.10;37.90;;;;;;6262336;28;20382;-70
2023/04/21 11:52:36;;;;;;;5.03;2.03;;;26.30;37.00;;;;;;6245204;28;20061;-71
2023/04/21 11:55:40;;;;;;;7.32;3.95;;;26.50;37.00;;;;;;6262963;28;20115;-69
2023/04/21 11:58:44;;;;;;;4.07;1.67;;;26.80;36.70;;;;;;6260918;28;20037;-69
2023/04/21 12:01:47;;;;;;;3.83;1.60;;;27.10;36.30;;;;;;6262676;28;20048;-70
2023/04/21 12:05:08;;;;;;;1.15;1.00;;;27.30;35.60;;;;;;6244309;28;20063;-70
2023/04/21 12:08:14;;;;;;;2.00;1.40;;;27.70;34.10;;;;;;6262682;28;20357;-72
2023/04/21 12:11:16;;;;;;;3.90;1.45;;;27.90;33.40;;;;;;6262664;28;20017;-71
2023/04/21 12:14:19;;;;;;;5.07;1.27;;;28.10;32.90;;;;;;6262630;28;20342;-69
2023/04/21 12:17:20;;;;;;;1.42;1.10;;;28.40;32.20;;;;;;6262427;28;20021;-70
2023/04/21 12:20:23;;;;;;;1.65;1.20;;;28.40;31.70;;;;;;6262716;28;20032;-70
2023/04/21 12:23:24;;;;;;;2.33;0.95;;;28.30;31.40;;;;;;6262328;28;20038;-70
2023/04/21 12:26:25;;;;;;;19.83;1.40;;;28.30;31.00;;;;;;6262310;28;20072;-72
2023/04/21 12:29:26;;;;;;;1.73;0.85;;;28.40;30.40;;;;;;6261811;28;20465;-71
2023/04/21 12:32:27;;;;;;;2.10;1.55;;;28.40;30.10;;;;;;6262450;28;20365;-70
2023/04/21 12:35:27;;;;;;;8.15;3.03;;;28.40;30.00;;;;;;6262683;28;20075;-70
2023/04/21 12:38:28;;;;;;;3.38;1.17;;;28.10;29.70;;;;;;6244528;28;20091;-69
2023/04/21 12:41:29;;;;;;;1.77;1.10;;;27.80;28.30;;;;;;6262237;28;20155;-70
2023/04/21 12:44:31;;;;;;;2.58;0.88;;;27.60;27.70;;;;;;6262283;28;20028;-71
2023/04/21 12:47:32;;;;;;;1.20;0.75;;;27.70;27.00;;;;;;6261898;28;20037;-70
2023/04/21 12:50:32;;;;;;;2.55;0.90;;;27.80;26.70;;;;;;6262125;28;20083;-70
2023/04/21 12:53:35;;;;;;;1.42;1.13;;;27.90;26.40;;;;;;6262206;28;20132;-68
2023/04/21 12:56:38;;;;;;;0.80;0.60;;;27.90;26.10;;;;;;6244175;28;20121;-68
2023/04/21 12:59:40;;;;;;;5.40;1.02;;;27.90;25.50;;;;;;6262101;28;20405;-71
2023/04/21 13:02:41;;;;;;;4.90;1.00;;;27.90;25.60;;;;;;6261765;28;20485;-69
2023/04/21 13:05:43;;;;;;;3.95;1.10;;;27.90;25.50;;;;;;6262486;28;20036;-71
2023/04/21 13:08:44;;;;;;;1.40;0.93;;;28.10;25.40;;;;;;6244075;28;20064;-73
2023/04/21 13:11:45;;;;;;;2.05;1.02;;;28.40;25.40;;;;;;6265053;28;20025;-71
2023/04/21 13:14:46;;;;;;;1.33;0.80;;;28.70;25.40;;;;;;6231959;28;20120;-69
2023/04/21 13:17:47;;;;;;;0.70;0.63;;;29.00;24.70;;;;;;6266084;28;20025;-69
2023/04/21 13:20:48;;;;;;;1.23;0.90;;;29.20;24.40;;;;;;6248468;28;20417;-70
2023/04/21 13:23:49;;;;;;;7.05;1.30;;;29.10;24.10;;;;;;6266272;28;20036;-69
2023/04/21 13:26:50;;;;;;;2.78;0.90;;;29.00;24.50;;;;;;6247914;28;20096;-70
2023/04/21 13:29:53;;;;;;;1.85;0.93;;;29.10;24.30;;;;;;6265986;28;20033;-70
2023/04/21 13:32:54;;;;;;;1.27;0.85;;;29.10;24.40;;;;;;6265995;28;20120;-69
2023/04/21 13:35:54;;;;;;;2.63;0.93;;;29.10;24.60;;;;;;6247458;28;20084;-70
2023/04/21 13:38:55;;;;;;;1.42;0.98;;;29.10;24.30;;;;;;6264503;28;20469;-71
2023/04/21 13:41:56;;;;;;;2.75;1.02;;;29.10;24.10;;;;;;6265438;28;20111;-68
2023/04/21 13:44:57;;;;;;;3.15;1.50;;;29.10;24.00;;;;;;6265688;28;20036;-68
2023/04/21 13:47:58;;;;;;;2.35;0.90;;;29.00;23.90;;;;;;6265730;28;20028;-70
2023/04/21 13:50:59;;;;;;;0.70;0.70;;;28.80;23.70;;;;;;6264839;28;20087;-69
2023/04/21 13:54:00;;;;;;;5.15;1.10;;;28.50;24.00;;;;;;6265949;28;20033;-71
2023/04/21 13:57:01;;;;;;;0.77;0.77;;;28.60;24.50;;;;;;6265161;28;20125;-71
2023/04/21 14:00:10;;;;;;;2.92;0.93;;;28.90;24.30;;;;;;6265234;28;20492;-70
2023/04/21 14:03:12;;;;;;;1.55;0.80;;;29.10;23.90;;;;;;6265459;28;20432;-70
2023/04/21 14:06:13;;;;;;;1.25;0.90;;;29.10;24.00;;;;;;6264747;28;20037;-72
2023/04/21 14:09:14;;;;;;;3.13;0.77;;;29.20;23.90;;;;;;6261449;28;20330;-72
2023/04/21 14:12:15;;;;;;;1.88;0.95;;;29.30;24.00;;;;;;6264883;28;20048;-70
2023/04/21 14:15:20;;;;;;;1.23;0.80;;;29.50;23.60;;;;;;6265579;28;20028;-72
2023/04/21 14:18:21;;;;;;;0.65;0.60;;;29.50;23.10;;;;;;6267157;28;20029;-70
2023/04/21 14:21:22;;;;;;;2.25;1.00;;;29.40;23.10;;;;;;6245701;28;20041;-69
2023/04/21 14:24:27;;;;;;;2.17;1.08;;;29.30;23.10;;;;;;6264536;28;20037;-70
2023/04/21 14:27:28;;;;;;;5.55;1.00;;;29.10;23.40;;;;;;6264804;28;20020;-70
2023/04/21 14:30:29;;;;;;;1.10;1.00;;;29.00;23.30;;;;;;6264796;28;20167;-70
2023/04/21 14:33:31;;;;;;;1.25;0.70;;;28.70;23.60;;;;;;6265239;28;20036;-69
2023/04/21 14:36:32;;;;;;;2.00;0.90;;;28.50;23.80;;;;;;6265071;28;20699;-70
2023/04/21 14:39:33;;;;;;;2.20;0.88;;;28.40;23.80;;;;;;6264792;28;20029;-70
2023/04/21 14:42:35;;;;;;;0.77;0.77;;;28.30;23.70;;;;;;6264570;28;20062;-71
2023/04/21 14:45:36;;;;;;;3.50;0.80;;;28.10;23.80;;;;;;6263929;28;20021;-70
2023/04/21 14:48:37;;;;;;;2.03;1.00;;;28.00;24.10;;;;;;6263837;28;20055;-69
2023/04/21 14:51:40;;;;;;;2.03;0.95;;;27.80;24.20;;;;;;6263982;28;20143;-71
2023/04/21 14:54:41;;;;;;;2.58;0.85;;;27.80;24.40;;;;;;6263505;28;20161;-70
2023/04/21 14:57:42;;;;;;;3.38;1.15;;;27.60;24.20;;;;;;6263453;28;20378;-68
2023/04/21 15:00:43;;;;;;;1.30;0.80;;;27.50;24.40;;;;;;6263698;28;20703;-69
2023/04/21 15:03:44;;;;;;;1.08;0.90;;;27.50;24.50;;;;;;6263857;28;20044;-72
2023/04/21 15:06:45;;;;;;;3.75;1.02;;;27.40;24.50;;;;;;6264005;28;20021;-70
2023/04/21 15:09:47;;;;;;;1.13;0.98;;;27.20;24.70;;;;;;6262796;28;20108;-69
2023/04/21 15:12:48;;;;;;;1.75;0.80;;;27.20;24.90;;;;;;6262479;28;20481;-69
2023/04/21 15:15:52;;;;;;;8.27;1.10;;;27.10;24.80;;;;;;6262431;28;20035;-71
2023/04/21 15:18:54;;;;;;;1.95;1.23;;;27.00;25.00;;;;;;6263685;28;20066;-69
2023/04/21 15:21:56;;;;;;;2.38;1.48;;;26.90;25.10;;;;;;6243481;28;20485;-70
2023/04/21 15:24:57;;;;;;;6.15;1.10;;;26.90;25.30;;;;;;6261337;28;20377;-71
2023/04/21 15:27:58;;;;;;;3.10;0.90;;;26.90;25.30;;;;;;6261093;28;20104;-70
2023/04/21 15:30:59;;;;;;;2.03;1.10;;;26.90;25.20;;;;;;6261453;28;20029;-71
2023/04/21 15:34:00;;;;;;;2.08;1.13;;;26.90;25.30;;;;;;6261037;28;20028;-70
2023/04/21 15:37:01;;;;;;;3.67;1.13;;;26.80;25.20;;;;;;6261425;28;20058;-70
2023/04/21 15:40:03;;;;;;;1.55;1.10;;;26.70;25.30;;;;;;6262662;28;20024;-70
2023/04/21 15:43:04;;;;;;;2.78;1.05;;;26.60;25.50;;;;;;6243849;28;20479;-71